This is the latest recevied weather packets stored in our database for station/object BMCB-34. If no packets are shown the sender has not sent any weather packets the latest 10 day(s).
| Time | Temp. | Humidity | Pressure | Rain* | Wind** | Luminosity | Snow |
|---|---|---|---|---|---|---|---|
| 1777257024 | 8.33° C | 65% | 1017.3 hPa | 0 mm | - | 0 W/m² | - |
| 1777256424 | 8.33° C | 66% | 1017.3 hPa | 0 mm | - | 0 W/m² | - |
| 1777255237 | 8.33° C | 66% | 1017.2 hPa | 0 mm | - | 0 W/m² | - |
| 1777254024 | 8.89° C | 66% | 1017.3 hPa | 0 mm | - | 0 W/m² | - |
| 1777253424 | 8.89° C | 65% | 1017.5 hPa | 0 mm | - | 0 W/m² | - |
| 1777250424 | 9.44° C | 65% | 1017.8 hPa | 0 mm | - | 0 W/m² | - |
| 1777249834 | 9.44° C | 65% | 1017.8 hPa | 0 mm | - | 0 W/m² | - |
| 1777249239 | 10° C | 63% | 1017.9 hPa | 0 mm | - | 0 W/m² | - |
| 1777247438 | 10.56° C | 63% | 1017.9 hPa | 0 mm | - | 0 W/m² | - |
| 1777246832 | 10.56° C | 63% | 1017.9 hPa | 0 mm | - | 0 W/m² | - |
| 1777239637 | 12.78° C | 55% | 1017.3 hPa | 0 mm | - | 0 W/m² | - |
| 1777238442 | 13.89° C | 51% | 1017.2 hPa | 0 mm | - | 0 W/m² | - |
| 1777234842 | 12.22° C | 55% | 1016.8 hPa | 0 mm | - | 0 W/m² | - |
| 1777233630 | 13.33° C | 53% | 1016.5 hPa | 0 mm | - | 0 W/m² | - |
| 1777230039 | 15.56° C | 46% | 1016 hPa | 0 mm | - | 0 W/m² | - |
| 1777229443 | 15.56° C | 46% | 1015.9 hPa | 0 mm | - | 4 W/m² | - |
| 1777227032 | 18.89° C | 36% | 1015.6 hPa | 0 mm | - | 60 W/m² | - |
| 1777225828 | 20° C | 33% | 1015.6 hPa | 0 mm | - | 106 W/m² | - |
| 1777224040 | 20.56° C | 32% | 1015.5 hPa | 0 mm | - | 204 W/m² | - |
| 1777222834 | 21.11° C | 31% | 1015.5 hPa | 0 mm | - | 260 W/m² | - |
| 1777216838 | 20.56° C | 32% | 1016 hPa | 0 mm | - | 500 W/m² | - |
| 1777216239 | 20.56° C | 33% | 1016.1 hPa | 0 mm | - | 536 W/m² | - |
| 1777211435 | 20.56° C | 32% | 1016.6 hPa | 0 mm | - | 646 W/m² | - |
| 1777210832 | 20° C | 32% | 1016.8 hPa | 0 mm | - | 670 W/m² | - |
| 1777207230 | 19.44° C | 34% | 1017.1 hPa | 0 mm | - | 702 W/m² | - |
* Rain latest hour (hover to see other rain measurements)
** Current wind speed in m/s (hover to see current wind gust speed)